sensor_id;sensor_type;location;lat;lon;timestamp;pressure;altitude;pressure_sealevel;temperature
10598;BMP180;5346;48.766;8.674;2023-08-30T00:00:54;93540.00;;;10.20
10598;BMP180;5346;48.766;8.674;2023-08-30T00:03:22;93543.00;;;10.20
10598;BMP180;5346;48.766;8.674;2023-08-30T00:06:09;93536.00;;;10.20
10598;BMP180;5346;48.766;8.674;2023-08-30T00:08:50;93530.00;;;10.10
10598;BMP180;5346;48.766;8.674;2023-08-30T00:11:25;93537.00;;;10.10
10598;BMP180;5346;48.766;8.674;2023-08-30T00:16:30;93533.00;;;10.10
10598;BMP180;5346;48.766;8.674;2023-08-30T00:18:58;93525.00;;;10.20
10598;BMP180;5346;48.766;8.674;2023-08-30T00:21:33;93532.00;;;10.30
10598;BMP180;5346;48.766;8.674;2023-08-30T00:24:01;93533.00;;;10.30
10598;BMP180;5346;48.766;8.674;2023-08-30T00:26:38;93538.00;;;10.40
10598;BMP180;5346;48.766;8.674;2023-08-30T00:29:14;93539.00;;;10.40
10598;BMP180;5346;48.766;8.674;2023-08-30T00:31:45;93532.00;;;10.40
10598;BMP180;5346;48.766;8.674;2023-08-30T00:34:20;93536.00;;;10.30
10598;BMP180;5346;48.766;8.674;2023-08-30T00:36:47;93529.00;;;10.30
10598;BMP180;5346;48.766;8.674;2023-08-30T00:39:22;93524.00;;;10.20
10598;BMP180;5346;48.766;8.674;2023-08-30T00:41:56;93521.00;;;10.20
10598;BMP180;5346;48.766;8.674;2023-08-30T00:44:25;93524.00;;;10.20
10598;BMP180;5346;48.766;8.674;2023-08-30T00:47:01;93523.00;;;10.30
10598;BMP180;5346;48.766;8.674;2023-08-30T00:49:32;93525.00;;;10.30
10598;BMP180;5346;48.766;8.674;2023-08-30T00:52:07;93518.00;;;10.30
10598;BMP180;5346;48.766;8.674;2023-08-30T00:54:44;93512.00;;;10.20
10598;BMP180;5346;48.766;8.674;2023-08-30T00:57:12;93512.00;;;10.20
10598;BMP180;5346;48.766;8.674;2023-08-30T00:59:46;93518.00;;;10.10
10598;BMP180;5346;48.766;8.674;2023-08-30T01:02:22;93509.00;;;10.10
10598;BMP180;5346;48.766;8.674;2023-08-30T01:04:57;93507.00;;;10.10
10598;BMP180;5346;48.766;8.674;2023-08-30T01:07:34;93508.00;;;10.10
10598;BMP180;5346;48.766;8.674;2023-08-30T01:10:11;93497.00;;;10.10
10598;BMP180;5346;48.766;8.674;2023-08-30T01:12:57;93498.00;;;10.00
10598;BMP180;5346;48.766;8.674;2023-08-30T01:15:29;93503.00;;;9.90
10598;BMP180;5346;48.766;8.674;2023-08-30T01:18:05;93495.00;;;9.90
10598;BMP180;5346;48.766;8.674;2023-08-30T01:20:42;93502.00;;;9.90
10598;BMP180;5346;48.766;8.674;2023-08-30T01:26:12;93507.00;;;10.00
10598;BMP180;5346;48.766;8.674;2023-08-30T01:28:47;93505.00;;;9.90
10598;BMP180;5346;48.766;8.674;2023-08-30T01:31:23;93503.00;;;9.80
10598;BMP180;5346;48.766;8.674;2023-08-30T01:33:52;93501.00;;;9.90
10598;BMP180;5346;48.766;8.674;2023-08-30T01:36:27;93506.00;;;9.90
10598;BMP180;5346;48.766;8.674;2023-08-30T01:38:55;93500.00;;;9.90
10598;BMP180;5346;48.766;8.674;2023-08-30T01:41:30;93495.00;;;10.10
10598;BMP180;5346;48.766;8.674;2023-08-30T01:44:08;93490.00;;;10.00
10598;BMP180;5346;48.766;8.674;2023-08-30T01:46:44;93486.00;;;9.90
10598;BMP180;5346;48.766;8.674;2023-08-30T01:49:13;93489.00;;;9.80
10598;BMP180;5346;48.766;8.674;2023-08-30T01:51:49;93490.00;;;9.90
10598;BMP180;5346;48.766;8.674;2023-08-30T01:54:24;93496.00;;;9.90
10598;BMP180;5346;48.766;8.674;2023-08-30T01:56:52;93500.00;;;9.90
10598;BMP180;5346;48.766;8.674;2023-08-30T01:59:27;93500.00;;;9.90
10598;BMP180;5346;48.766;8.674;2023-08-30T02:02:07;93488.00;;;9.90
10598;BMP180;5346;48.766;8.674;2023-08-30T02:04:42;93493.00;;;9.90
10598;BMP180;5346;48.766;8.674;2023-08-30T02:10:16;93483.00;;;10.00
10598;BMP180;5346;48.766;8.674;2023-08-30T02:12:48;93484.00;;;9.90
10598;BMP180;5346;48.766;8.674;2023-08-30T02:15:25;93495.00;;;9.90
10598;BMP180;5346;48.766;8.674;2023-08-30T02:17:55;93484.00;;;9.90
10598;BMP180;5346;48.766;8.674;2023-08-30T02:20:30;93481.00;;;9.80
10598;BMP180;5346;48.766;8.674;2023-08-30T02:23:05;93481.00;;;9.80
10598;BMP180;5346;48.766;8.674;2023-08-30T02:25:41;93482.00;;;9.80
10598;BMP180;5346;48.766;8.674;2023-08-30T02:28:09;93477.00;;;9.80
10598;BMP180;5346;48.766;8.674;2023-08-30T02:30:43;93481.00;;;9.80
10598;BMP180;5346;48.766;8.674;2023-08-30T02:33:10;93483.00;;;9.70
10598;BMP180;5346;48.766;8.674;2023-08-30T02:35:40;93491.00;;;9.70
10598;BMP180;5346;48.766;8.674;2023-08-30T02:38:14;93483.00;;;9.70
10598;BMP180;5346;48.766;8.674;2023-08-30T02:40:48;93495.00;;;9.80
10598;BMP180;5346;48.766;8.674;2023-08-30T02:43:40;93494.00;;;9.90
10598;BMP180;5346;48.766;8.674;2023-08-30T02:46:08;93482.00;;;9.90
10598;BMP180;5346;48.766;8.674;2023-08-30T02:48:42;93493.00;;;10.00
10598;BMP180;5346;48.766;8.674;2023-08-30T02:51:10;93493.00;;;10.00
10598;BMP180;5346;48.766;8.674;2023-08-30T02:53:46;93488.00;;;10.00
10598;BMP180;5346;48.766;8.674;2023-08-30T02:56:15;93486.00;;;10.10
10598;BMP180;5346;48.766;8.674;2023-08-30T02:58:49;93487.00;;;10.10
10598;BMP180;5346;48.766;8.674;2023-08-30T03:01:23;93484.00;;;10.10
10598;BMP180;5346;48.766;8.674;2023-08-30T03:03:57;93486.00;;;10.10
10598;BMP180;5346;48.766;8.674;2023-08-30T03:06:33;93484.00;;;10.10
10598;BMP180;5346;48.766;8.674;2023-08-30T03:09:08;93480.00;;;10.10
10598;BMP180;5346;48.766;8.674;2023-08-30T03:11:44;93477.00;;;10.10
10598;BMP180;5346;48.766;8.674;2023-08-30T03:14:21;93479.00;;;10.10
10598;BMP180;5346;48.766;8.674;2023-08-30T03:16:58;93481.00;;;10.10
10598;BMP180;5346;48.766;8.674;2023-08-30T03:19:26;93482.00;;;10.10
10598;BMP180;5346;48.766;8.674;2023-08-30T03:21:54;93477.00;;;10.20
10598;BMP180;5346;48.766;8.674;2023-08-30T03:24:29;93483.00;;;10.20
10598;BMP180;5346;48.766;8.674;2023-08-30T03:27:03;93478.00;;;10.20
10598;BMP180;5346;48.766;8.674;2023-08-30T03:29:31;93469.00;;;10.20
10598;BMP180;5346;48.766;8.674;2023-08-30T03:32:05;93467.00;;;10.30
10598;BMP180;5346;48.766;8.674;2023-08-30T03:34:40;93479.00;;;10.30
10598;BMP180;5346;48.766;8.674;2023-08-30T03:37:07;93474.00;;;10.20
10598;BMP180;5346;48.766;8.674;2023-08-30T03:39:35;93466.00;;;10.20
10598;BMP180;5346;48.766;8.674;2023-08-30T03:42:10;93477.00;;;10.40
10598;BMP180;5346;48.766;8.674;2023-08-30T03:44:38;93470.00;;;10.40
10598;BMP180;5346;48.766;8.674;2023-08-30T03:47:14;93468.00;;;10.30
10598;BMP180;5346;48.766;8.674;2023-08-30T03:49:43;93475.00;;;10.40
10598;BMP180;5346;48.766;8.674;2023-08-30T03:52:17;93480.00;;;10.40
10598;BMP180;5346;48.766;8.674;2023-08-30T03:54:47;93471.00;;;10.50
10598;BMP180;5346;48.766;8.674;2023-08-30T03:57:22;93474.00;;;10.40
10598;BMP180;5346;48.766;8.674;2023-08-30T03:59:59;93480.00;;;10.50
10598;BMP180;5346;48.766;8.674;2023-08-30T04:02:40;93482.00;;;10.50
10598;BMP180;5346;48.766;8.674;2023-08-30T04:05:16;93471.00;;;10.60
10598;BMP180;5346;48.766;8.674;2023-08-30T04:07:44;93477.00;;;10.60
10598;BMP180;5346;48.766;8.674;2023-08-30T04:10:19;93474.00;;;10.60
10598;BMP180;5346;48.766;8.674;2023-08-30T04:12:55;93480.00;;;10.60
10598;BMP180;5346;48.766;8.674;2023-08-30T04:15:23;93477.00;;;10.50
10598;BMP180;5346;48.766;8.674;2023-08-30T04:18:00;93475.00;;;10.50
10598;BMP180;5346;48.766;8.674;2023-08-30T04:20:31;93468.00;;;10.50
10598;BMP180;5346;48.766;8.674;2023-08-30T04:23:06;93471.00;;;10.60
10598;BMP180;5346;48.766;8.674;2023-08-30T04:25:34;93470.00;;;10.50
10598;BMP180;5346;48.766;8.674;2023-08-30T04:28:05;93479.00;;;10.60
10598;BMP180;5346;48.766;8.674;2023-08-30T04:30:40;93470.00;;;10.70
10598;BMP180;5346;48.766;8.674;2023-08-30T04:33:19;93471.00;;;10.60
10598;BMP180;5346;48.766;8.674;2023-08-30T04:35:56;93464.00;;;10.60
10598;BMP180;5346;48.766;8.674;2023-08-30T04:38:24;93471.00;;;10.80
10598;BMP180;5346;48.766;8.674;2023-08-30T04:40:58;93468.00;;;10.60
10598;BMP180;5346;48.766;8.674;2023-08-30T04:43:30;93468.00;;;10.70
10598;BMP180;5346;48.766;8.674;2023-08-30T04:46:09;93473.00;;;10.70
10598;BMP180;5346;48.766;8.674;2023-08-30T04:48:36;93466.00;;;10.60
10598;BMP180;5346;48.766;8.674;2023-08-30T04:51:10;93464.00;;;10.70
10598;BMP180;5346;48.766;8.674;2023-08-30T04:53:38;93469.00;;;10.80
10598;BMP180;5346;48.766;8.674;2023-08-30T04:56:14;93466.00;;;10.70
10598;BMP180;5346;48.766;8.674;2023-08-30T04:58:51;93468.00;;;10.70
10598;BMP180;5346;48.766;8.674;2023-08-30T05:01:25;93472.00;;;10.70
10598;BMP180;5346;48.766;8.674;2023-08-30T05:04:06;93478.00;;;10.70
10598;BMP180;5346;48.766;8.674;2023-08-30T05:06:40;93475.00;;;10.70
10598;BMP180;5346;48.766;8.674;2023-08-30T05:09:08;93474.00;;;10.70
10598;BMP180;5346;48.766;8.674;2023-08-30T05:11:36;93473.00;;;10.70
10598;BMP180;5346;48.766;8.674;2023-08-30T05:14:11;93475.00;;;11.00
10598;BMP180;5346;48.766;8.674;2023-08-30T05:16:40;93469.00;;;11.00
10598;BMP180;5346;48.766;8.674;2023-08-30T05:19:19;93475.00;;;11.10
10598;BMP180;5346;48.766;8.674;2023-08-30T05:21:53;93469.00;;;11.00
10598;BMP180;5346;48.766;8.674;2023-08-30T05:24:28;93468.00;;;11.10
10598;BMP180;5346;48.766;8.674;2023-08-30T05:26:56;93466.00;;;11.10
10598;BMP180;5346;48.766;8.674;2023-08-30T05:29:35;93471.00;;;11.10
10598;BMP180;5346;48.766;8.674;2023-08-30T05:32:03;93472.00;;;11.00
10598;BMP180;5346;48.766;8.674;2023-08-30T05:34:37;93471.00;;;11.10
10598;BMP180;5346;48.766;8.674;2023-08-30T05:37:05;93476.00;;;11.10
10598;BMP180;5346;48.766;8.674;2023-08-30T05:39:39;93478.00;;;11.20
10598;BMP180;5346;48.766;8.674;2023-08-30T05:42:13;93473.00;;;11.10
10598;BMP180;5346;48.766;8.674;2023-08-30T05:44:47;93471.00;;;11.20
10598;BMP180;5346;48.766;8.674;2023-08-30T05:47:21;93475.00;;;11.30
10598;BMP180;5346;48.766;8.674;2023-08-30T05:49:58;93470.00;;;11.40
10598;BMP180;5346;48.766;8.674;2023-08-30T05:52:32;93469.00;;;11.50
10598;BMP180;5346;48.766;8.674;2023-08-30T05:55:11;93471.00;;;11.60
10598;BMP180;5346;48.766;8.674;2023-08-30T05:57:45;93469.00;;;11.50
10598;BMP180;5346;48.766;8.674;2023-08-30T06:00:13;93470.00;;;11.70
10598;BMP180;5346;48.766;8.674;2023-08-30T06:02:46;93476.00;;;11.70
10598;BMP180;5346;48.766;8.674;2023-08-30T06:05:34;93466.00;;;11.80
10598;BMP180;5346;48.766;8.674;2023-08-30T06:08:02;93471.00;;;11.80
10598;BMP180;5346;48.766;8.674;2023-08-30T06:10:37;93467.00;;;11.80
10598;BMP180;5346;48.766;8.674;2023-08-30T06:13:13;93464.00;;;12.00
10598;BMP180;5346;48.766;8.674;2023-08-30T06:15:51;93472.00;;;11.90
10598;BMP180;5346;48.766;8.674;2023-08-30T06:18:29;93467.00;;;12.10
10598;BMP180;5346;48.766;8.674;2023-08-30T06:20:57;93469.00;;;12.10
10598;BMP180;5346;48.766;8.674;2023-08-30T06:23:33;93474.00;;;12.30
10598;BMP180;5346;48.766;8.674;2023-08-30T06:26:04;93469.00;;;12.40
10598;BMP180;5346;48.766;8.674;2023-08-30T06:28:38;93475.00;;;12.40
10598;BMP180;5346;48.766;8.674;2023-08-30T06:31:05;93467.00;;;12.50
10598;BMP180;5346;48.766;8.674;2023-08-30T06:33:42;93465.00;;;12.60
10598;BMP180;5346;48.766;8.674;2023-08-30T06:36:25;93466.00;;;12.80
10598;BMP180;5346;48.766;8.674;2023-08-30T06:39:12;93464.00;;;12.90
10598;BMP180;5346;48.766;8.674;2023-08-30T06:41:47;93469.00;;;13.00
10598;BMP180;5346;48.766;8.674;2023-08-30T06:44:14;93477.00;;;13.00
10598;BMP180;5346;48.766;8.674;2023-08-30T06:46:50;93471.00;;;13.00
10598;BMP180;5346;48.766;8.674;2023-08-30T06:49:34;93469.00;;;13.20
10598;BMP180;5346;48.766;8.674;2023-08-30T06:52:12;93470.00;;;13.20
10598;BMP180;5346;48.766;8.674;2023-08-30T06:54:40;93469.00;;;13.20
10598;BMP180;5346;48.766;8.674;2023-08-30T06:57:14;93468.00;;;13.30
10598;BMP180;5346;48.766;8.674;2023-08-30T06:59:48;93462.00;;;13.50
10598;BMP180;5346;48.766;8.674;2023-08-30T07:02:22;93465.00;;;13.50
10598;BMP180;5346;48.766;8.674;2023-08-30T07:04:56;93463.00;;;13.60
10598;BMP180;5346;48.766;8.674;2023-08-30T07:07:38;93467.00;;;13.60
10598;BMP180;5346;48.766;8.674;2023-08-30T07:10:13;93454.00;;;13.70
10598;BMP180;5346;48.766;8.674;2023-08-30T07:12:47;93451.00;;;13.60
10598;BMP180;5346;48.766;8.674;2023-08-30T07:15:16;93459.00;;;13.60
10598;BMP180;5346;48.766;8.674;2023-08-30T07:17:58;93465.00;;;13.40
10598;BMP180;5346;48.766;8.674;2023-08-30T07:20:32;93448.00;;;13.50
10598;BMP180;5346;48.766;8.674;2023-08-30T07:23:07;93459.00;;;13.60
10598;BMP180;5346;48.766;8.674;2023-08-30T07:25:38;93460.00;;;13.70
10598;BMP180;5346;48.766;8.674;2023-08-30T07:28:12;93450.00;;;13.90
10598;BMP180;5346;48.766;8.674;2023-08-30T07:30:42;93456.00;;;13.90
10598;BMP180;5346;48.766;8.674;2023-08-30T07:33:18;93452.00;;;14.10
10598;BMP180;5346;48.766;8.674;2023-08-30T07:35:47;93453.00;;;14.20
10598;BMP180;5346;48.766;8.674;2023-08-30T07:38:21;93448.00;;;14.30
10598;BMP180;5346;48.766;8.674;2023-08-30T07:41:00;93452.00;;;14.30
10598;BMP180;5346;48.766;8.674;2023-08-30T07:43:36;93452.00;;;14.30
10598;BMP180;5346;48.766;8.674;2023-08-30T07:46:11;93448.00;;;14.40
10598;BMP180;5346;48.766;8.674;2023-08-30T07:48:45;93447.00;;;14.60
10598;BMP180;5346;48.766;8.674;2023-08-30T07:51:13;93443.00;;;14.70
10598;BMP180;5346;48.766;8.674;2023-08-30T07:53:49;93435.00;;;14.70
10598;BMP180;5346;48.766;8.674;2023-08-30T07:56:28;93439.00;;;14.80
10598;BMP180;5346;48.766;8.674;2023-08-30T07:59:06;93442.00;;;15.00
10598;BMP180;5346;48.766;8.674;2023-08-30T08:01:33;93444.00;;;15.10
10598;BMP180;5346;48.766;8.674;2023-08-30T08:04:16;93446.00;;;15.10
10598;BMP180;5346;48.766;8.674;2023-08-30T08:06:50;93447.00;;;15.10
10598;BMP180;5346;48.766;8.674;2023-08-30T08:09:28;93454.00;;;15.10
10598;BMP180;5346;48.766;8.674;2023-08-30T08:12:04;93447.00;;;15.30
10598;BMP180;5346;48.766;8.674;2023-08-30T08:14:31;93445.00;;;15.60
10598;BMP180;5346;48.766;8.674;2023-08-30T08:17:00;93451.00;;;16.00
10598;BMP180;5346;48.766;8.674;2023-08-30T08:19:34;93445.00;;;16.40
10598;BMP180;5346;48.766;8.674;2023-08-30T08:22:15;93389.00;;;16.50
10598;BMP180;5346;48.766;8.674;2023-08-30T08:24:50;93454.00;;;16.40
10598;BMP180;5346;48.766;8.674;2023-08-30T08:27:18;93443.00;;;16.40
10598;BMP180;5346;48.766;8.674;2023-08-30T08:29:53;93444.00;;;16.50
10598;BMP180;5346;48.766;8.674;2023-08-30T08:32:27;93442.00;;;16.60
10598;BMP180;5346;48.766;8.674;2023-08-30T08:35:01;93441.00;;;16.50
10598;BMP180;5346;48.766;8.674;2023-08-30T08:37:31;93456.00;;;16.70
10598;BMP180;5346;48.766;8.674;2023-08-30T08:40:06;93449.00;;;17.00
10598;BMP180;5346;48.766;8.674;2023-08-30T08:42:53;93457.00;;;17.20
10598;BMP180;5346;48.766;8.674;2023-08-30T08:45:23;93456.00;;;17.10
10598;BMP180;5346;48.766;8.674;2023-08-30T08:47:57;93452.00;;;17.00
10598;BMP180;5346;48.766;8.674;2023-08-30T08:50:27;93454.00;;;16.90
10598;BMP180;5346;48.766;8.674;2023-08-30T08:53:03;93451.00;;;17.00
10598;BMP180;5346;48.766;8.674;2023-08-30T08:55:31;93461.00;;;16.90
10598;BMP180;5346;48.766;8.674;2023-08-30T08:58:06;93455.00;;;17.00
10598;BMP180;5346;48.766;8.674;2023-08-30T09:00:42;93454.00;;;17.10
10598;BMP180;5346;48.766;8.674;2023-08-30T09:03:11;93460.00;;;17.60
10598;BMP180;5346;48.766;8.674;2023-08-30T09:05:48;93447.00;;;17.70
10598;BMP180;5346;48.766;8.674;2023-08-30T09:08:23;93446.00;;;17.70
10598;BMP180;5346;48.766;8.674;2023-08-30T09:11:03;93451.00;;;17.90
10598;BMP180;5346;48.766;8.674;2023-08-30T09:13:38;93460.00;;;18.40
10598;BMP180;5346;48.766;8.674;2023-08-30T09:16:13;93461.00;;;18.30
10598;BMP180;5346;48.766;8.674;2023-08-30T09:18:44;93446.00;;;18.30
10598;BMP180;5346;48.766;8.674;2023-08-30T09:21:19;93447.00;;;18.50
10598;BMP180;5346;48.766;8.674;2023-08-30T09:24:00;93452.00;;;18.40
10598;BMP180;5346;48.766;8.674;2023-08-30T09:26:37;93457.00;;;18.80
10598;BMP180;5346;48.766;8.674;2023-08-30T09:29:13;93447.00;;;19.10
10598;BMP180;5346;48.766;8.674;2023-08-30T09:31:41;93454.00;;;19.50
10598;BMP180;5346;48.766;8.674;2023-08-30T09:34:15;93447.00;;;19.20
10598;BMP180;5346;48.766;8.674;2023-08-30T09:36:43;93451.00;;;19.00
10598;BMP180;5346;48.766;8.674;2023-08-30T09:39:24;93457.00;;;18.60
10598;BMP180;5346;48.766;8.674;2023-08-30T09:41:53;93468.00;;;18.00
10598;BMP180;5346;48.766;8.674;2023-08-30T09:44:32;93471.00;;;17.60
10598;BMP180;5346;48.766;8.674;2023-08-30T09:47:06;93462.00;;;17.70
10598;BMP180;5346;48.766;8.674;2023-08-30T09:49:44;93447.00;;;17.80
10598;BMP180;5346;48.766;8.674;2023-08-30T09:52:21;93460.00;;;18.10
10598;BMP180;5346;48.766;8.674;2023-08-30T09:54:57;93454.00;;;18.10
10598;BMP180;5346;48.766;8.674;2023-08-30T09:57:26;93458.00;;;17.80
10598;BMP180;5346;48.766;8.674;2023-08-30T10:00:00;93455.00;;;17.60
10598;BMP180;5346;48.766;8.674;2023-08-30T10:02:39;93466.00;;;17.30
10598;BMP180;5346;48.766;8.674;2023-08-30T10:05:36;93464.00;;;16.90
10598;BMP180;5346;48.766;8.674;2023-08-30T10:08:06;93467.00;;;16.50
10598;BMP180;5346;48.766;8.674;2023-08-30T10:10:40;93478.00;;;16.50
10598;BMP180;5346;48.766;8.674;2023-08-30T10:13:12;93463.00;;;16.00
10598;BMP180;5346;48.766;8.674;2023-08-30T10:15:53;93468.00;;;15.90
10598;BMP180;5346;48.766;8.674;2023-08-30T10:18:27;93470.00;;;15.70
10598;BMP180;5346;48.766;8.674;2023-08-30T10:21:07;93465.00;;;15.50
10598;BMP180;5346;48.766;8.674;2023-08-30T10:23:49;93458.00;;;15.60
10598;BMP180;5346;48.766;8.674;2023-08-30T10:26:26;93462.00;;;15.70
10598;BMP180;5346;48.766;8.674;2023-08-30T10:28:55;93463.00;;;15.90
10598;BMP180;5346;48.766;8.674;2023-08-30T10:31:31;93466.00;;;15.90
10598;BMP180;5346;48.766;8.674;2023-08-30T10:33:59;93466.00;;;15.80
10598;BMP180;5346;48.766;8.674;2023-08-30T10:36:35;93460.00;;;16.10
10598;BMP180;5346;48.766;8.674;2023-08-30T10:39:11;93458.00;;;16.10
10598;BMP180;5346;48.766;8.674;2023-08-30T10:41:56;93455.00;;;15.70
10598;BMP180;5346;48.766;8.674;2023-08-30T10:44:26;93452.00;;;16.20
10598;BMP180;5346;48.766;8.674;2023-08-30T10:47:05;93447.00;;;16.10
10598;BMP180;5346;48.766;8.674;2023-08-30T10:49:41;93447.00;;;16.60
10598;BMP180;5346;48.766;8.674;2023-08-30T10:52:16;93449.00;;;16.80
10598;BMP180;5346;48.766;8.674;2023-08-30T10:54:47;93439.00;;;16.90
10598;BMP180;5346;48.766;8.674;2023-08-30T10:57:25;93440.00;;;17.20
10598;BMP180;5346;48.766;8.674;2023-08-30T11:00:18;93435.00;;;17.60
10598;BMP180;5346;48.766;8.674;2023-08-30T11:02:53;93428.00;;;17.90
10598;BMP180;5346;48.766;8.674;2023-08-30T11:05:34;93427.00;;;18.20
10598;BMP180;5346;48.766;8.674;2023-08-30T11:08:13;93422.00;;;18.40
10598;BMP180;5346;48.766;8.674;2023-08-30T11:10:41;93419.00;;;18.80
10598;BMP180;5346;48.766;8.674;2023-08-30T11:13:16;93407.00;;;19.00
10598;BMP180;5346;48.766;8.674;2023-08-30T11:15:45;93404.00;;;19.70
10598;BMP180;5346;48.766;8.674;2023-08-30T11:18:22;93399.00;;;20.30
10598;BMP180;5346;48.766;8.674;2023-08-30T11:21:00;93385.00;;;20.50
10598;BMP180;5346;48.766;8.674;2023-08-30T11:23:35;93395.00;;;20.20
10598;BMP180;5346;48.766;8.674;2023-08-30T11:26:06;93377.00;;;20.20
10598;BMP180;5346;48.766;8.674;2023-08-30T11:28:43;93372.00;;;20.80
10598;BMP180;5346;48.766;8.674;2023-08-30T11:31:24;93374.00;;;20.80
10598;BMP180;5346;48.766;8.674;2023-08-30T11:33:57;93372.00;;;21.10
10598;BMP180;5346;48.766;8.674;2023-08-30T11:36:36;93373.00;;;21.40
10598;BMP180;5346;48.766;8.674;2023-08-30T11:39:12;93392.00;;;21.10
10598;BMP180;5346;48.766;8.674;2023-08-30T11:41:47;93371.00;;;20.70
10598;BMP180;5346;48.766;8.674;2023-08-30T11:44:24;93379.00;;;19.20
10598;BMP180;5346;48.766;8.674;2023-08-30T11:46:59;93370.00;;;19.60
10598;BMP180;5346;48.766;8.674;2023-08-30T11:49:33;93403.00;;;19.10
10598;BMP180;5346;48.766;8.674;2023-08-30T11:52:01;93384.00;;;19.10
10598;BMP180;5346;48.766;8.674;2023-08-30T11:54:36;93368.00;;;19.70
10598;BMP180;5346;48.766;8.674;2023-08-30T11:57:08;93385.00;;;20.40
10598;BMP180;5346;48.766;8.674;2023-08-30T11:59:43;93376.00;;;20.60
10598;BMP180;5346;48.766;8.674;2023-08-30T12:02:15;93374.00;;;20.10
10598;BMP180;5346;48.766;8.674;2023-08-30T12:05:04;93363.00;;;19.70
10598;BMP180;5346;48.766;8.674;2023-08-30T12:07:38;93369.00;;;20.90
10598;BMP180;5346;48.766;8.674;2023-08-30T12:10:18;93362.00;;;21.10
10598;BMP180;5346;48.766;8.674;2023-08-30T12:12:54;93356.00;;;22.00
10598;BMP180;5346;48.766;8.674;2023-08-30T12:15:23;93392.00;;;21.90
10598;BMP180;5346;48.766;8.674;2023-08-30T12:18:06;93361.00;;;20.60
10598;BMP180;5346;48.766;8.674;2023-08-30T12:20:50;93383.00;;;20.20
10598;BMP180;5346;48.766;8.674;2023-08-30T12:23:29;93395.00;;;19.90
10598;BMP180;5346;48.766;8.674;2023-08-30T12:26:06;93355.00;;;19.70
10598;BMP180;5346;48.766;8.674;2023-08-30T12:28:43;93356.00;;;21.50
10598;BMP180;5346;48.766;8.674;2023-08-30T12:31:18;93352.00;;;22.00
10598;BMP180;5346;48.766;8.674;2023-08-30T12:33:54;93373.00;;;22.20
10598;BMP180;5346;48.766;8.674;2023-08-30T12:36:22;93358.00;;;21.00
10598;BMP180;5346;48.766;8.674;2023-08-30T12:38:56;93356.00;;;21.70
10598;BMP180;5346;48.766;8.674;2023-08-30T12:41:24;93372.00;;;22.20
10598;BMP180;5346;48.766;8.674;2023-08-30T12:43:58;93366.00;;;22.40
10598;BMP180;5346;48.766;8.674;2023-08-30T12:46:27;93381.00;;;22.50
10598;BMP180;5346;48.766;8.674;2023-08-30T12:48:55;93394.00;;;21.60
10598;BMP180;5346;48.766;8.674;2023-08-30T12:51:29;93391.00;;;20.10
10598;BMP180;5346;48.766;8.674;2023-08-30T12:53:57;93389.00;;;19.30
10598;BMP180;5346;48.766;8.674;2023-08-30T12:56:39;93391.00;;;19.20
10598;BMP180;5346;48.766;8.674;2023-08-30T12:59:13;93389.00;;;19.30
10598;BMP180;5346;48.766;8.674;2023-08-30T13:01:41;93382.00;;;19.40
10598;BMP180;5346;48.766;8.674;2023-08-30T13:04:22;93390.00;;;19.30
10598;BMP180;5346;48.766;8.674;2023-08-30T13:06:50;93393.00;;;19.40
10598;BMP180;5346;48.766;8.674;2023-08-30T13:09:26;93377.00;;;20.30
10598;BMP180;5346;48.766;8.674;2023-08-30T13:11:54;93397.00;;;20.30
10598;BMP180;5346;48.766;8.674;2023-08-30T13:14:28;93373.00;;;19.40
10598;BMP180;5346;48.766;8.674;2023-08-30T13:17:05;93377.00;;;20.10
10598;BMP180;5346;48.766;8.674;2023-08-30T13:19:40;93372.00;;;19.30
10598;BMP180;5346;48.766;8.674;2023-08-30T13:22:08;93353.00;;;20.40
10598;BMP180;5346;48.766;8.674;2023-08-30T13:24:48;93365.00;;;20.90
10598;BMP180;5346;48.766;8.674;2023-08-30T13:27:22;93373.00;;;21.40
10598;BMP180;5346;48.766;8.674;2023-08-30T13:29:56;93369.00;;;20.50
10598;BMP180;5346;48.766;8.674;2023-08-30T13:32:30;93348.00;;;20.10
10598;BMP180;5346;48.766;8.674;2023-08-30T13:34:58;93351.00;;;20.80
10598;BMP180;5346;48.766;8.674;2023-08-30T13:37:36;93343.00;;;21.30
10598;BMP180;5346;48.766;8.674;2023-08-30T13:40:06;93368.00;;;21.30
10598;BMP180;5346;48.766;8.674;2023-08-30T13:42:48;93375.00;;;20.30
10598;BMP180;5346;48.766;8.674;2023-08-30T13:45:16;93378.00;;;19.80
10598;BMP180;5346;48.766;8.674;2023-08-30T13:47:50;93377.00;;;19.20
10598;BMP180;5346;48.766;8.674;2023-08-30T13:50:27;93375.00;;;19.40
10598;BMP180;5346;48.766;8.674;2023-08-30T13:52:59;93380.00;;;19.30
10598;BMP180;5346;48.766;8.674;2023-08-30T13:55:36;93363.00;;;18.80
10598;BMP180;5346;48.766;8.674;2023-08-30T13:58:10;93382.00;;;18.80
10598;BMP180;5346;48.766;8.674;2023-08-30T14:00:45;93387.00;;;18.80
10598;BMP180;5346;48.766;8.674;2023-08-30T14:03:24;93390.00;;;18.70
10598;BMP180;5346;48.766;8.674;2023-08-30T14:06:05;93388.00;;;18.90
10598;BMP180;5346;48.766;8.674;2023-08-30T14:08:33;93377.00;;;18.90
10598;BMP180;5346;48.766;8.674;2023-08-30T14:11:01;93384.00;;;19.20
10598;BMP180;5346;48.766;8.674;2023-08-30T14:13:35;93384.00;;;19.30
10598;BMP180;5346;48.766;8.674;2023-08-30T14:16:03;93385.00;;;19.40
10598;BMP180;5346;48.766;8.674;2023-08-30T14:18:38;93384.00;;;19.60
10598;BMP180;5346;48.766;8.674;2023-08-30T14:21:12;93388.00;;;19.50
10598;BMP180;5346;48.766;8.674;2023-08-30T14:23:52;93395.00;;;19.20
10598;BMP180;5346;48.766;8.674;2023-08-30T14:26:26;93395.00;;;18.90
10598;BMP180;5346;48.766;8.674;2023-08-30T14:28:54;93391.00;;;19.00
10598;BMP180;5346;48.766;8.674;2023-08-30T14:31:34;93388.00;;;19.50
10598;BMP180;5346;48.766;8.674;2023-08-30T14:34:13;93375.00;;;19.90
10598;BMP180;5346;48.766;8.674;2023-08-30T14:36:41;93400.00;;;19.90
10598;BMP180;5346;48.766;8.674;2023-08-30T14:39:17;93410.00;;;19.50
10598;BMP180;5346;48.766;8.674;2023-08-30T14:41:49;93408.00;;;19.20
10598;BMP180;5346;48.766;8.674;2023-08-30T14:44:23;93408.00;;;18.80
10598;BMP180;5346;48.766;8.674;2023-08-30T14:46:54;93411.00;;;18.10
10598;BMP180;5346;48.766;8.674;2023-08-30T14:49:29;93411.00;;;18.30
10598;BMP180;5346;48.766;8.674;2023-08-30T14:52:04;93396.00;;;18.60
10598;BMP180;5346;48.766;8.674;2023-08-30T14:54:38;93393.00;;;19.30
10598;BMP180;5346;48.766;8.674;2023-08-30T14:57:12;93394.00;;;19.60
10598;BMP180;5346;48.766;8.674;2023-08-30T14:59:48;93392.00;;;19.40
10598;BMP180;5346;48.766;8.674;2023-08-30T15:02:23;93398.00;;;19.60
10598;BMP180;5346;48.766;8.674;2023-08-30T15:05:07;93402.00;;;19.10
10598;BMP180;5346;48.766;8.674;2023-08-30T15:07:34;93396.00;;;18.50
10598;BMP180;5346;48.766;8.674;2023-08-30T15:10:09;93401.00;;;18.40